Time;durP1;ratioP1;P1;durP2;ratioP2;P2;SDS_P1;SDS_P2;PMS_P1;PMS_P2;Temp;Humidity;BMP_temperature;BMP_pressure;BME280_temperature;BME280_humidity;BME280_pressure;Samples;Min_cycle;Max_cycle;Signal;HPM_P1;HPM_P2
2023/08/08 00:00:12;;;;;;;;;7.25;3.50;;;;;20.60;58.26;101479.13;4958786;28;45512;-72
2023/08/08 00:02:37;;;;;;;;;2.00;2.00;;;;;20.33;58.12;101426.53;4958601;28;45310;-72
2023/08/08 00:05:03;;;;;;;;;1.25;1.00;;;;;20.46;58.26;101452.88;4957463;28;45526;-72
2023/08/08 00:07:31;;;;;;;;;2.00;2.00;;;;;20.43;58.78;101453.97;4991001;28;45418;-72
2023/08/08 00:09:57;;;;;;;;;2.75;1.00;;;;;20.56;58.35;101467.59;5012922;27;45614;-72
2023/08/08 00:12:23;;;;;;;;;2.00;1.50;;;;;20.41;58.65;101441.44;4960101;28;45351;-72
2023/08/08 00:14:49;;;;;;;;;2.00;2.00;;;;;20.45;58.40;101454.72;4958665;28;45608;-72
2023/08/08 00:17:14;;;;;;;;;3.00;3.00;;;;;20.52;58.63;101463.34;4964001;28;45367;-72
2023/08/08 00:19:40;;;;;;;;;1.00;1.00;;;;;20.52;58.61;101468.78;4977403;28;45347;-72
2023/08/08 00:22:06;;;;;;;;;2.00;1.00;;;;;20.39;58.73;101452.41;4958609;28;45346;-72
2023/08/08 00:24:31;;;;;;;;;0.75;0.75;;;;;20.24;58.96;101427.09;4970618;28;45424;-72
2023/08/08 00:26:57;;;;;;;;;2.00;2.00;;;;;20.44;59.17;101466.53;4976500;28;45532;-73
2023/08/08 00:29:22;;;;;;;;;2.75;2.75;;;;;20.22;59.14;101423.63;4966371;28;46132;-73
2023/08/08 00:31:47;;;;;;;;;2.00;2.00;;;;;20.36;59.04;101460.72;4958116;28;45528;-73
2023/08/08 00:34:13;;;;;;;;;3.25;2.25;;;;;20.40;59.39;101466.81;5008166;28;45473;-72
2023/08/08 00:36:38;;;;;;;;;2.00;1.50;;;;;20.23;59.61;101429.91;4980089;28;53335;-73
2023/08/08 00:39:03;;;;;;;;;2.00;1.50;;;;;20.40;59.58;101461.38;4985928;27;46405;-73
2023/08/08 00:41:29;;;;;;;;;3.00;3.00;;;;;20.34;59.75;101446.38;4982536;28;45539;-73
2023/08/08 00:43:54;;;;;;;;;4.00;3.00;;;;;20.38;60.03;101455.19;4973382;28;45370;-72
2023/08/08 00:46:21;;;;;;;;;2.50;2.00;;;;;20.32;59.98;101442.91;4971084;28;45679;-72
2023/08/08 00:48:47;;;;;;;;;4.00;2.00;;;;;20.22;59.80;101426.34;4968190;28;48272;-73
2023/08/08 00:51:13;;;;;;;;;4.25;2.75;;;;;20.33;60.07;101448.25;4982418;28;45421;-72
2023/08/08 00:53:38;;;;;;;;;3.00;3.00;;;;;20.25;59.84;101434.28;4985699;28;45366;-72
2023/08/08 00:56:04;;;;;;;;;2.25;2.25;;;;;20.24;60.13;101429.81;4959073;28;45335;-72
2023/08/08 00:58:30;;;;;;;;;3.00;3.00;;;;;20.08;60.11;101405.53;4968233;28;48037;-72
2023/08/08 01:00:57;;;;;;;;;2.25;2.00;;;;;20.17;60.57;101420.34;4963243;28;45292;-73
2023/08/08 01:03:23;;;;;;;;;3.00;3.00;;;;;20.15;60.52;101417.72;4977537;28;45509;-72
2023/08/08 01:05:58;;;;;;;;;3.00;1.75;;;;;20.23;60.60;101432.63;4958410;28;45484;-72
2023/08/08 01:08:32;;;;;;;;;2.00;2.00;;;;;20.07;60.65;101414.59;5023008;28;46233;-72
2023/08/08 01:10:58;;;;;;;;;3.00;3.00;;;;;20.18;60.22;101422.94;4969476;28;45336;-72
2023/08/08 01:13:26;;;;;;;;;5.00;2.00;;;;;20.21;61.04;101431.84;4977608;27;45460;-72
2023/08/08 01:15:55;;;;;;;;;2.00;2.00;;;;;20.06;60.37;101401.16;4976068;28;45627;-72
2023/08/08 01:18:21;;;;;;;;;2.50;2.50;;;;;20.03;60.89;101409.47;4974639;28;46463;-72
2023/08/08 01:20:48;;;;;;;;;3.75;3.00;;;;;20.15;60.82;101431.28;4965596;28;45441;-72
2023/08/08 01:23:23;;;;;;;;;2.50;2.00;;;;;20.14;60.79;101431.38;4974796;28;45426;-72
2023/08/08 01:25:50;;;;;;;;;2.75;2.00;;;;;19.95;61.19;101402.69;4967191;28;45443;-72
2023/08/08 01:28:16;;;;;;;;;3.00;3.00;;;;;20.03;61.19;101421.19;4972533;28;45457;-72
2023/08/08 01:30:42;;;;;;;;;3.75;2.75;;;;;19.89;61.08;101399.47;4957826;28;45394;-72
2023/08/08 01:33:07;;;;;;;;;2.00;2.00;;;;;19.96;61.24;101408.97;4957639;28;45588;-73
2023/08/08 01:35:41;;;;;;;;;2.25;2.25;;;;;20.10;61.34;101433.41;5021619;28;45570;-72
2023/08/08 01:38:47;;;;;;;;;3.25;2.00;;;;;20.10;60.80;101433.41;4961149;28;46124;-72
2023/08/08 01:41:13;;;;;;;;;2.00;1.50;;;;;20.05;61.35;101427.38;4916501;28;45653;-73
2023/08/08 01:43:39;;;;;;;;;2.25;2.00;;;;;19.92;61.08;101405.59;4916898;28;45305;-72
2023/08/08 01:46:05;;;;;;;;;5.75;2.75;;;;;19.87;61.19;101399.56;4945084;28;45348;-72
2023/08/08 01:48:31;;;;;;;;;2.00;2.00;;;;;20.05;61.34;101430.09;4976806;28;45421;-73
2023/08/08 01:50:56;;;;;;;;;3.00;1.75;;;;;19.98;61.35;101426.88;4976749;28;45310;-72
2023/08/08 01:53:21;;;;;;;;;3.00;3.00;;;;;19.86;61.25;101405.09;4976920;28;45295;-73
2023/08/08 01:55:47;;;;;;;;;2.75;1.25;;;;;19.90;61.45;101426.47;4976560;28;45298;-72
2023/08/08 01:58:12;;;;;;;;;2.00;2.00;;;;;19.92;61.54;101424.53;4975394;28;48031;-72
2023/08/08 02:00:41;;;;;;;;;3.00;2.00;;;;;19.93;61.64;101418.19;4975371;28;45452;-72
2023/08/08 02:03:06;;;;;;;;;2.00;2.00;;;;;19.82;61.34;101395.41;4976679;28;45382;-72
2023/08/08 02:05:32;;;;;;;;;2.75;2.00;;;;;20.00;61.60;101424.09;4976364;28;45496;-72
2023/08/08 02:07:57;;;;;;;;;2.50;2.00;;;;;20.01;61.52;101419.53;5013932;28;45404;-72
2023/08/08 02:10:22;;;;;;;;;2.00;2.00;;;;;19.81;61.10;101394.53;4974557;27;45441;-72
2023/08/08 02:12:48;;;;;;;;;2.00;2.00;;;;;19.93;61.25;101409.16;4965503;28;45387;-72
2023/08/08 02:15:13;;;;;;;;;2.25;2.00;;;;;19.84;61.22;101386.22;4963323;28;45536;-72
2023/08/08 02:17:39;;;;;;;;;2.00;1.25;;;;;19.99;61.53;101417.78;4975061;28;47320;-72
2023/08/08 02:20:07;;;;;;;;;1.00;1.00;;;;;20.02;61.59;101413.16;4976327;28;45324;-72
2023/08/08 02:22:33;;;;;;;;;2.00;2.00;;;;;19.93;61.53;101404.63;4964799;28;45422;-72
2023/08/08 02:24:58;;;;;;;;;3.00;2.00;;;;;19.93;61.86;101404.63;4960532;28;45522;-72
2023/08/08 02:27:23;;;;;;;;;1.25;1.25;;;;;19.79;62.18;101386.47;4974847;28;48318;-73
2023/08/08 02:29:49;;;;;;;;;2.00;1.00;;;;;19.88;61.73;101390.50;4961131;28;45352;-72
2023/08/08 02:32:14;;;;;;;;;2.00;2.00;;;;;19.94;62.20;101403.63;4956880;28;45413;-72
2023/08/08 02:34:40;;;;;;;;;2.00;2.00;;;;;19.87;62.17;101386.03;5018426;28;45852;-72
2023/08/08 02:37:05;;;;;;;;;4.50;2.25;;;;;19.84;62.31;101385.34;4974836;28;46976;-73
2023/08/08 02:39:30;;;;;;;;;3.50;2.00;;;;;19.86;62.00;101378.84;4961001;28;45379;-72
2023/08/08 02:41:56;;;;;;;;;1.00;1.00;;;;;19.74;62.21;101364.19;4981840;28;45444;-72
2023/08/08 02:44:22;;;;;;;;;1.75;1.50;;;;;19.88;62.17;101385.06;4973487;28;45551;-72
2023/08/08 02:46:48;;;;;;;;;4.50;2.00;;;;;19.75;62.22;101363.28;4966098;28;47352;-72
2023/08/08 02:49:13;;;;;;;;;1.00;1.00;;;;;19.84;62.27;101385.34;4984758;28;45378;-72
2023/08/08 02:51:38;;;;;;;;;4.75;2.00;;;;;19.72;62.28;101370.69;4967326;28;45401;-72
2023/08/08 02:54:04;;;;;;;;;5.00;1.50;;;;;19.81;62.55;101389.09;4970318;28;45693;-73
2023/08/08 02:56:29;;;;;;;;;2.00;2.00;;;;;19.81;62.46;101391.81;4967217;28;45390;-73
2023/08/08 02:58:54;;;;;;;;;1.00;1.00;;;;;19.65;62.50;101375.59;4985982;28;45370;-72
2023/08/08 03:01:19;;;;;;;;;2.00;2.00;;;;;19.77;62.19;101398.41;4969381;28;45291;-72
2023/08/08 03:03:45;;;;;;;;;2.00;2.00;;;;;19.65;62.52;101388.28;4959765;28;45256;-72
2023/08/08 03:06:10;;;;;;;;;1.50;1.50;;;;;19.79;62.77;101412.72;4959074;28;45415;-72
2023/08/08 03:08:35;;;;;;;;;4.00;1.25;;;;;19.71;62.62;101404.13;5033263;28;45596;-72
2023/08/08 03:11:01;;;;;;;;;1.75;1.75;;;;;19.77;62.63;101412.81;4970591;28;45447;-72
2023/08/08 03:13:26;;;;;;;;;2.00;2.00;;;;;19.77;62.93;101417.34;4958965;28;45299;-72
2023/08/08 03:15:52;;;;;;;;;3.00;3.00;;;;;19.73;62.90;101404.91;4959291;28;48131;-72
2023/08/08 03:18:17;;;;;;;;;2.50;2.00;;;;;19.66;62.85;101393.56;4957874;28;45311;-72
2023/08/08 03:20:42;;;;;;;;;2.50;2.50;;;;;19.63;62.95;101388.38;4959485;28;45819;-72
2023/08/08 03:23:08;;;;;;;;;4.00;3.00;;;;;19.66;62.94;101387.28;4959254;28;45410;-72
2023/08/08 03:25:33;;;;;;;;;2.00;2.00;;;;;19.44;63.10;101354.28;4950072;28;46204;-72
2023/08/08 03:27:58;;;;;;;;;2.00;2.00;;;;;19.68;62.90;101401.63;4975994;28;45518;-72
2023/08/08 03:30:24;;;;;;;;;2.75;2.00;;;;;19.70;63.29;101406.00;4959440;28;45583;-73
2023/08/08 03:32:49;;;;;;;;;3.75;2.00;;;;;19.53;63.54;101379.94;4958918;28;45410;-73
2023/08/08 03:35:15;;;;;;;;;3.75;2.50;;;;;19.61;63.43;101384.84;5024295;28;48049;-72
2023/08/08 03:37:41;;;;;;;;;4.75;2.25;;;;;19.49;63.45;101366.66;4965230;28;45307;-72
2023/08/08 03:40:10;;;;;;;;;3.25;2.25;;;;;19.65;63.11;101391.00;4959356;28;45624;-73
2023/08/08 03:42:35;;;;;;;;;3.00;3.00;;;;;19.66;63.47;101400.84;4989206;28;45339;-72
2023/08/08 03:45:01;;;;;;;;;3.50;1.75;;;;;19.59;63.35;101403.91;4973123;28;45491;-72
2023/08/08 03:47:26;;;;;;;;;2.00;2.00;;;;;19.60;63.34;101404.81;4983811;28;45394;-72
2023/08/08 03:49:55;;;;;;;;;4.00;4.00;;;;;19.68;63.38;101407.03;4964948;28;45364;-72
2023/08/08 03:52:20;;;;;;;;;3.50;3.50;;;;;19.51;63.62;101378.25;4963835;28;45517;-72
2023/08/08 03:54:46;;;;;;;;;2.00;2.00;;;;;19.63;63.77;101410.91;4970835;28;46122;-72
2023/08/08 03:57:11;;;;;;;;;2.00;2.00;;;;;19.50;63.76;101388.22;4971228;28;45373;-72
2023/08/08 03:59:36;;;;;;;;;3.00;3.00;;;;;19.61;63.67;101412.84;4970926;28;45600;-72
2023/08/08 04:02:02;;;;;;;;;3.50;3.50;;;;;19.49;64.19;101386.47;4958520;28;45445;-72
2023/08/08 04:04:27;;;;;;;;;3.00;3.00;;;;;19.48;64.24;101398.28;4958685;28;45435;-72
2023/08/08 04:06:52;;;;;;;;;2.75;2.00;;;;;19.63;64.27;101426.28;4957277;28;45398;-72
2023/08/08 04:09:18;;;;;;;;;3.00;3.00;;;;;19.50;64.42;101399.06;5033099;28;45484;-72
2023/08/08 04:11:43;;;;;;;;;2.25;2.25;;;;;19.53;64.36;101403.41;4963611;28;45514;-72
2023/08/08 04:14:08;;;;;;;;;5.25;3.00;;;;;19.60;64.74;101421.06;4964693;28;45353;-72
2023/08/08 04:16:34;;;;;;;;;2.00;2.00;;;;;19.48;64.44;101400.09;4974802;28;45329;-73
2023/08/08 04:18:59;;;;;;;;;3.25;3.25;;;;;19.47;64.27;101401.09;4990201;27;53333;-73
2023/08/08 04:21:27;;;;;;;;;5.75;3.25;;;;;19.55;64.61;101409.63;4964379;28;45306;-72
2023/08/08 04:23:52;;;;;;;;;3.00;3.00;;;;;19.58;64.42;101417.56;4964374;28;47360;-73
2023/08/08 04:26:18;;;;;;;;;4.00;2.75;;;;;19.33;64.50;101380.22;4976849;28;45453;-73
2023/08/08 04:28:43;;;;;;;;;3.75;3.00;;;;;19.35;64.72;101383.72;4964604;28;45349;-72
2023/08/08 04:31:08;;;;;;;;;2.25;2.25;;;;;19.54;65.05;101422.25;4965258;28;45544;-72
2023/08/08 04:33:34;;;;;;;;;2.00;2.00;;;;;19.32;64.96;101387.47;4975268;28;46336;-73
2023/08/08 04:35:59;;;;;;;;;4.00;2.25;;;;;19.39;65.22;101407.78;4986962;28;45474;-72
2023/08/08 04:38:24;;;;;;;;;6.00;5.00;;;;;19.46;65.26;101423.69;4971521;28;45573;-73
2023/08/08 04:40:50;;;;;;;;;2.00;2.00;;;;;19.30;65.24;101383.13;4973603;28;45401;-72
2023/08/08 04:43:15;;;;;;;;;4.75;4.00;;;;;19.25;65.10;101386.09;4971814;28;52586;-73
2023/08/08 04:45:40;;;;;;;;;3.25;3.25;;;;;19.34;65.28;101409.03;4983489;28;45437;-72
2023/08/08 04:48:06;;;;;;;;;1.25;1.25;;;;;19.33;65.67;101420.81;4973667;28;45497;-73
2023/08/08 04:50:31;;;;;;;;;2.00;2.00;;;;;19.16;65.54;101395.63;4970978;28;45488;-73
2023/08/08 04:52:57;;;;;;;;;3.75;3.00;;;;;19.35;65.51;101427.03;4958328;28;45617;-72
2023/08/08 04:55:22;;;;;;;;;3.00;2.50;;;;;19.33;65.52;101418.13;4969608;28;45795;-73
2023/08/08 04:57:47;;;;;;;;;4.00;2.00;;;;;19.37;65.84;101422.41;4971382;28;45350;-72
2023/08/08 05:00:14;;;;;;;;;3.00;3.00;;;;;19.31;65.75;101420.03;4958081;28;45402;-73
2023/08/08 05:02:41;;;;;;;;;4.00;2.75;;;;;19.15;66.19;101382.19;4957835;28;45689;-73
2023/08/08 05:05:07;;;;;;;;;3.75;2.75;;;;;19.37;65.96;101427.81;4957664;28;45377;-72
2023/08/08 05:07:32;;;;;;;;;2.75;2.75;;;;;19.36;65.95;101417.94;4981610;28;45378;-72
2023/08/08 05:09:58;;;;;;;;;3.00;3.00;;;;;19.34;65.87;101415.31;5009061;27;45260;-72
2023/08/08 05:12:23;;;;;;;;;2.75;2.75;;;;;19.34;66.10;101422.56;4970925;28;45401;-73
2023/08/08 05:14:48;;;;;;;;;3.00;3.00;;;;;19.26;65.92;101412.19;4983413;28;45551;-73
2023/08/08 05:17:14;;;;;;;;;6.00;4.00;;;;;19.30;65.87;101418.31;4958138;28;45413;-72
2023/08/08 05:19:39;;;;;;;;;3.50;3.50;;;;;19.11;66.04;101386.03;4957905;28;45490;-73
2023/08/08 05:22:05;;;;;;;;;3.50;3.50;;;;;19.21;66.20;101407.06;4989151;28;46921;-72
2023/08/08 05:24:30;;;;;;;;;7.00;5.00;;;;;19.29;66.36;101416.56;4962875;28;45554;-73
2023/08/08 05:26:56;;;;;;;;;4.00;4.00;;;;;19.29;66.13;101419.28;4964477;28;45488;-73
2023/08/08 05:29:21;;;;;;;;;5.25;5.25;;;;;19.23;65.97;101413.25;4964030;28;45491;-72
2023/08/08 05:31:47;;;;;;;;;3.00;2.25;;;;;19.11;66.39;101392.31;4955932;28;46471;-73
2023/08/08 05:34:13;;;;;;;;;5.00;5.00;;;;;18.97;66.76;101378.72;5010786;28;45451;-72
2023/08/08 05:36:38;;;;;;;;;5.00;5.00;;;;;19.13;66.72;101398.50;4978821;28;46006;-72
2023/08/08 05:39:03;;;;;;;;;5.50;5.50;;;;;19.03;66.48;101389.19;4995099;28;45416;-72
2023/08/08 05:41:29;;;;;;;;;6.00;6.00;;;;;19.03;66.83;101391.91;4971695;27;46548;-72
2023/08/08 05:43:54;;;;;;;;;5.75;5.00;;;;;18.97;67.29;101387.69;4957649;28;45308;-73
2023/08/08 05:46:19;;;;;;;;;4.50;4.00;;;;;19.13;67.34;101412.03;4974058;28;45338;-73
2023/08/08 05:48:46;;;;;;;;;5.25;5.25;;;;;18.98;66.99;101389.44;4965797;28;45288;-72
2023/08/08 05:51:11;;;;;;;;;4.25;4.25;;;;;18.94;67.04;101393.28;4957344;28;45310;-72
2023/08/08 05:53:38;;;;;;;;;4.00;4.00;;;;;18.91;67.23;101384.47;4957366;28;45304;-72
2023/08/08 05:56:03;;;;;;;;;5.00;5.00;;;;;18.94;67.56;101392.41;4957259;28;45339;-72
2023/08/08 05:58:29;;;;;;;;;6.00;5.25;;;;;19.09;67.43;101421.28;4991003;28;45502;-73
2023/08/08 06:00:54;;;;;;;;;5.25;4.50;;;;;19.06;67.66;101418.75;4973780;28;47188;-72
2023/08/08 06:03:20;;;;;;;;;3.00;3.00;;;;;19.13;67.49;101435.50;4974881;28;56818;-73
2023/08/08 06:05:45;;;;;;;;;4.00;4.00;;;;;19.03;67.16;101416.25;4958506;28;45546;-72
2023/08/08 06:08:12;;;;;;;;;4.00;4.00;;;;;19.14;67.82;101429.16;5013018;28;45612;-72
2023/08/08 06:10:37;;;;;;;;;5.25;4.25;;;;;19.03;67.55;101406.28;4975817;27;45402;-72
2023/08/08 06:13:03;;;;;;;;;10.25;5.00;;;;;19.21;67.53;101426.00;4967597;28;45417;-72
2023/08/08 06:15:28;;;;;;;;;4.00;4.00;;;;;19.06;67.78;101400.72;4956610;28;45303;-73
2023/08/08 06:17:54;;;;;;;;;5.00;4.00;;;;;19.20;67.44;101413.44;4969415;28;45249;-72
2023/08/08 06:20:19;;;;;;;;;3.00;3.00;;;;;19.11;68.04;101400.44;4957624;28;45891;-73
2023/08/08 06:22:45;;;;;;;;;5.00;3.25;;;;;19.28;67.64;101440.06;4957066;28;45409;-72
2023/08/08 06:25:11;;;;;;;;;4.75;4.75;;;;;19.10;67.50;101404.09;4956926;28;45343;-72
2023/08/08 06:27:36;;;;;;;;;3.75;3.75;;;;;19.28;67.64;101441.88;4967999;28;45642;-73
2023/08/08 06:30:02;;;;;;;;;3.25;3.25;;;;;19.11;67.79;101419.38;4969108;28;47044;-72
2023/08/08 06:32:28;;;;;;;;;4.00;3.25;;;;;19.19;67.60;101416.22;4966853;28;45619;-73
2023/08/08 06:34:54;;;;;;;;;3.75;3.50;;;;;19.29;67.68;101427.38;5025874;28;45342;-72
2023/08/08 06:37:20;;;;;;;;;2.25;2.25;;;;;19.16;67.89;101416.41;4959836;28;45521;-73
2023/08/08 06:39:45;;;;;;;;;3.75;3.00;;;;;19.23;67.42;101417.81;4971634;28;45436;-73
2023/08/08 06:42:11;;;;;;;;;1.75;1.75;;;;;19.22;67.18;101424.16;4962721;28;45512;-73
2023/08/08 06:44:42;;;;;;;;;1.50;0.50;;;;;19.40;67.03;101447.47;4959600;28;45446;-72
2023/08/08 06:47:08;;;;;;;;;2.00;2.00;;;;;19.22;66.52;101413.34;4959774;28;45366;-72
2023/08/08 06:49:33;;;;;;;;;2.00;2.00;;;;;19.40;66.16;101442.03;4959471;28;45311;-72
2023/08/08 06:51:59;;;;;;;;;0.50;0.50;;;;;19.43;65.30;101428.34;4959553;28;45405;-72
2023/08/08 06:54:24;;;;;;;;;1.00;1.00;;;;;19.22;65.30;101406.09;4959590;28;45445;-73
2023/08/08 06:56:49;;;;;;;;;2.50;1.50;;;;;19.23;65.17;101412.41;4959487;28;45449;-72
2023/08/08 06:59:14;;;;;;;;;2.00;1.00;;;;;19.27;64.71;101407.66;4959335;28;50681;-72
2023/08/08 07:01:40;;;;;;;;;2.00;2.00;;;;;19.46;64.38;101429.97;4959465;28;45360;-73
2023/08/08 07:04:05;;;;;;;;;1.25;1.25;;;;;19.29;64.09;101403.03;4959344;28;45449;-72
2023/08/08 07:06:31;;;;;;;;;2.00;2.00;;;;;19.32;64.26;101402.84;4959425;28;45469;-72
2023/08/08 07:08:56;;;;;;;;;1.50;1.50;;;;;19.31;64.91;101399.28;5033713;28;47110;-73
2023/08/08 07:11:22;;;;;;;;;1.75;1.75;;;;;19.42;64.66;101418.44;4973919;28;53013;-73
2023/08/08 07:13:47;;;;;;;;;2.25;2.00;;;;;19.48;64.43;101428.06;4973484;28;45433;-72
2023/08/08 07:16:12;;;;;;;;;2.00;2.00;;;;;19.49;64.43;101418.97;4959553;28;45318;-73
2023/08/08 07:18:38;;;;;;;;;1.00;1.00;;;;;19.43;64.29;101397.69;4974538;28;48244;-72
2023/08/08 07:21:03;;;;;;;;;5.75;5.00;;;;;19.50;64.14;101409.03;4968465;28;45414;-72
2023/08/08 07:23:29;;;;;;;;;2.75;2.75;;;;;19.59;64.36;101412.03;4958959;28;45565;-72
2023/08/08 07:25:54;;;;;;;;;1.75;1.75;;;;;19.63;63.75;101426.28;4958873;28;45481;-72
2023/08/08 07:28:19;;;;;;;;;2.00;2.00;;;;;19.54;63.96;101403.31;4958958;28;45399;-73
2023/08/08 07:30:45;;;;;;;;;1.50;1.00;;;;;19.62;63.37;101409.16;4959331;28;45589;-73
2023/08/08 07:33:10;;;;;;;;;1.00;1.00;;;;;19.61;63.10;101414.66;4959055;28;45276;-72
2023/08/08 07:35:35;;;;;;;;;1.75;1.75;;;;;19.70;63.14;101416.81;5026064;28;45734;-72
2023/08/08 07:38:01;;;;;;;;;1.25;1.00;;;;;19.66;62.98;101404.41;4960452;28;47518;-72
2023/08/08 07:40:27;;;;;;;;;2.00;2.00;;;;;19.58;62.64;101390.50;4969814;28;45349;-72
2023/08/08 07:42:52;;;;;;;;;1.00;1.00;;;;;19.56;62.37;101393.28;5004894;28;45394;-72
2023/08/08 07:45:18;;;;;;;;;0.75;0.00;;;;;19.70;61.67;101416.81;4973533;28;45523;-72
2023/08/08 07:47:44;;;;;;;;;1.00;1.00;;;;;19.59;61.66;101395.78;4971828;28;46080;-72
2023/08/08 07:50:09;;;;;;;;;1.00;1.00;;;;;19.58;61.44;101383.22;4959074;28;45463;-72
2023/08/08 07:52:36;;;;;;;;;1.25;1.25;;;;;19.70;61.69;101400.56;4958873;28;45422;-72
2023/08/08 07:55:01;;;;;;;;;1.25;1.00;;;;;19.80;62.04;101412.63;4958961;28;45355;-72
2023/08/08 07:57:27;;;;;;;;;1.00;1.00;;;;;19.69;61.59;101390.69;4987572;28;45504;-72
2023/08/08 07:59:52;;;;;;;;;3.00;1.00;;;;;19.72;60.86;101398.63;4967831;28;45577;-72
2023/08/08 08:02:17;;;;;;;;;1.75;0.00;;;;;19.75;60.82;101400.34;4970020;28;45542;-72
2023/08/08 08:04:43;;;;;;;;;1.00;1.00;;;;;19.91;60.98;101402.97;4958729;28;45366;-72
2023/08/08 08:07:08;;;;;;;;;0.25;0.25;;;;;19.80;60.63;101390.94;4961930;28;45483;-72
2023/08/08 08:09:33;;;;;;;;;2.75;1.75;;;;;19.75;60.53;101374.09;5031240;27;45616;-72
2023/08/08 08:11:59;;;;;;;;;1.00;1.00;;;;;19.98;60.38;101409.78;4961862;28;45498;-72
2023/08/08 08:14:24;;;;;;;;;1.50;1.00;;;;;19.98;60.31;101401.63;4958773;28;45427;-72
2023/08/08 08:16:50;;;;;;;;;0.50;0.50;;;;;20.03;60.01;101404.94;4958303;28;45322;-72
2023/08/08 08:19:15;;;;;;;;;1.50;0.25;;;;;19.91;59.88;101384.88;4958845;28;45342;-72
2023/08/08 08:21:41;;;;;;;;;2.00;1.00;;;;;19.91;60.36;101389.41;4957198;28;45271;-72
2023/08/08 08:24:06;;;;;;;;;3.25;1.75;;;;;20.05;59.45;101396.72;4968567;28;45298;-72
2023/08/08 08:26:32;;;;;;;;;0.25;0.25;;;;;20.08;60.09;101404.63;4975962;28;48337;-72
2023/08/08 08:28:57;;;;;;;;;1.00;1.00;;;;;19.95;59.65;101369.31;4972087;28;45710;-72
2023/08/08 08:31:23;;;;;;;;;1.50;0.75;;;;;20.17;59.47;101401.38;4971499;28;45335;-72
2023/08/08 08:33:48;;;;;;;;;1.00;1.00;;;;;20.18;59.52;101401.25;4987273;28;45494;-72
2023/08/08 08:36:13;;;;;;;;;0.75;0.75;;;;;20.20;59.10;101394.84;4992604;28;46948;-72
2023/08/08 08:38:39;;;;;;;;;1.50;1.50;;;;;20.11;59.96;101375.53;4985960;28;45395;-72
2023/08/08 08:41:04;;;;;;;;;1.00;1.00;;;;;20.22;59.60;101382.09;4979705;28;45331;-72
2023/08/08 08:43:31;;;;;;;;;1.00;0.25;;;;;20.28;59.51;101381.69;4965110;28;45379;-72
2023/08/08 08:45:59;;;;;;;;;1.25;1.25;;;;;20.24;58.92;101370.19;4975757;28;47121;-72
2023/08/08 08:48:25;;;;;;;;;0.75;0.75;;;;;20.22;57.78;101352.28;4967885;28;45509;-72
2023/08/08 08:50:51;;;;;;;;;1.00;1.00;;;;;20.43;58.60;101393.41;4975874;28;45546;-72
2023/08/08 08:53:17;;;;;;;;;0.25;0.25;;;;;20.45;57.97;101396.94;4958192;28;45509;-72
2023/08/08 08:55:43;;;;;;;;;1.00;1.00;;;;;20.36;57.83;101382.97;4985412;28;46072;-72
2023/08/08 08:58:09;;;;;;;;;1.00;1.00;;;;;20.48;57.41;101399.41;4968919;28;45306;-72
2023/08/08 09:00:35;;;;;;;;;1.00;1.00;;;;;20.46;57.97;101394.09;4958229;28;45584;-72
2023/08/08 09:03:01;;;;;;;;;0.00;0.00;;;;;20.37;57.61;101378.41;4958064;28;45511;-72
2023/08/08 09:05:27;;;;;;;;;1.00;1.00;;;;;20.63;57.57;101412.06;4957771;28;45370;-72
2023/08/08 09:07:52;;;;;;;;;0.50;0.50;;;;;20.56;57.38;101391.66;4998277;28;45421;-72
2023/08/08 09:10:19;;;;;;;;;0.50;0.50;;;;;20.66;57.20;101397.41;4996169;27;45310;-72
2023/08/08 09:12:45;;;;;;;;;1.00;1.00;;;;;20.56;57.32;101378.09;4975825;28;45999;-72
2023/08/08 09:15:11;;;;;;;;;0.75;0.75;;;;;20.76;56.90;101403.09;4978208;28;45401;-72
2023/08/08 09:17:41;;;;;;;;;0.00;0.00;;;;;20.69;56.45;101384.50;4958033;28;45383;-72
2023/08/08 09:20:07;;;;;;;;;0.00;0.00;;;;;20.80;56.92;101399.22;4957986;28;45649;-72
2023/08/08 09:22:33;;;;;;;;;5.00;2.00;;;;;20.63;56.74;101374.06;4957945;28;45410;-72
2023/08/08 09:24:58;;;;;;;;;0.00;0.00;;;;;20.83;57.43;101401.72;4957684;28;45482;-72
2023/08/08 09:27:23;;;;;;;;;1.00;1.00;;;;;20.78;56.54;101384.88;4957693;28;45657;-72
2023/08/08 09:29:49;;;;;;;;;1.00;1.00;;;;;20.80;57.50;101386.53;4961200;28;45525;-72
2023/08/08 09:32:17;;;;;;;;;0.50;0.50;;;;;20.96;57.20;101396.38;4988566;28;45431;-72
2023/08/08 09:34:43;;;;;;;;;0.00;0.00;;;;;20.82;57.01;101364.75;5024448;28;45495;-72
2023/08/08 09:37:10;;;;;;;;;1.00;1.00;;;;;20.84;56.24;101362.78;4958540;28;45322;-72
2023/08/08 09:39:35;;;;;;;;;1.00;1.00;;;;;21.03;56.91;101386.84;4970782;28;45409;-72
2023/08/08 09:42:03;;;;;;;;;2.00;1.00;;;;;20.95;56.37;101356.63;4982986;28;45711;-72
2023/08/08 09:44:31;;;;;;;;;2.00;1.00;;;;;21.07;56.70;101370.28;4976834;28;45355;-72
2023/08/08 09:46:57;;;;;;;;;1.00;1.00;;;;;21.07;56.83;101363.97;4977009;28;45326;-72
2023/08/08 09:49:23;;;;;;;;;1.00;1.00;;;;;21.17;57.30;101364.25;4977031;28;45403;-72
2023/08/08 09:51:49;;;;;;;;;1.00;1.00;;;;;21.08;57.69;101349.41;4976947;28;45581;-72
2023/08/08 09:54:15;;;;;;;;;1.75;1.00;;;;;21.14;56.86;101346.28;4976715;28;45685;-72
2023/08/08 09:56:40;;;;;;;;;0.50;0.50;;;;;21.33;56.79;101373.06;4976794;28;45375;-72
2023/08/08 09:59:07;;;;;;;;;3.00;3.00;;;;;21.30;56.92;101354.28;4976711;28;45452;-72
2023/08/08 10:01:32;;;;;;;;;1.00;0.50;;;;;21.35;56.97;101354.84;4959448;28;45527;-72
2023/08/08 10:03:59;;;;;;;;;1.50;1.00;;;;;21.36;57.12;101356.56;4974911;28;46827;-72
2023/08/08 10:06:24;;;;;;;;;0.75;0.75;;;;;21.24;56.35;101335.69;4976710;28;45338;-72
2023/08/08 10:08:50;;;;;;;;;1.25;1.00;;;;;21.31;56.42;101344.28;5031602;28;45298;-72
2023/08/08 10:11:17;;;;;;;;;1.00;1.00;;;;;21.46;56.22;101365.81;4976355;28;45329;-72
2023/08/08 10:13:50;;;;;;;;;3.00;0.00;;;;;21.40;57.02;101352.69;4976200;28;46260;-72
2023/08/08 10:16:17;;;;;;;;;2.00;2.00;;;;;21.48;57.02;101357.59;4976679;28;45528;-72
2023/08/08 10:18:42;;;;;;;;;1.00;1.00;;;;;21.51;56.61;101346.53;4976551;28;45260;-72
2023/08/08 10:21:10;;;;;;;;;1.00;1.00;;;;;21.48;56.64;101341.31;5007612;28;45496;-72
2023/08/08 10:23:39;;;;;;;;;1.00;1.00;;;;;21.45;57.27;101331.50;4975220;28;46583;-72
2023/08/08 10:26:06;;;;;;;;;1.00;1.00;;;;;21.60;56.44;101343.19;4975027;28;45378;-72
2023/08/08 10:28:32;;;;;;;;;2.00;1.00;;;;;21.45;56.41;101311.59;4971853;28;45390;-72
2023/08/08 10:30:59;;;;;;;;;1.00;1.00;;;;;21.46;56.11;101308.78;4956946;28;45392;-72
2023/08/08 10:33:26;;;;;;;;;2.00;2.00;;;;;21.67;57.35;101340.91;4965803;28;46344;-72
2023/08/08 10:36:03;;;;;;;;;2.00;2.00;;;;;21.74;57.64;101325.91;5008514;28;45469;-71
2023/08/08 10:38:40;;;;;;;;;1.75;1.75;;;;;21.89;56.62;101337.56;4963622;28;45384;-72
2023/08/08 10:41:09;;;;;;;;;2.25;1.75;;;;;21.80;56.80;101317.34;4980908;28;45676;-72
2023/08/08 10:43:34;;;;;;;;;1.25;1.25;;;;;21.92;56.52;101331.00;4966402;28;47175;-72
2023/08/08 10:46:01;;;;;;;;;2.00;2.00;;;;;21.88;56.51;101318.63;4956655;28;45455;-72
2023/08/08 10:48:27;;;;;;;;;2.25;2.25;;;;;21.97;56.38;101329.72;4956742;28;45331;-72
2023/08/08 10:50:58;;;;;;;;;2.00;2.00;;;;;21.99;56.33;101321.47;4956504;28;45488;-72
2023/08/08 10:53:28;;;;;;;;;1.00;1.00;;;;;21.95;56.60;101309.94;4956510;28;45354;-72
2023/08/08 10:56:02;;;;;;;;;1.50;1.50;;;;;21.96;56.23;101289.06;4956244;28;45378;-72
2023/08/08 10:58:42;;;;;;;;;1.75;1.00;;;;;22.18;55.66;101321.88;4956817;28;45430;-72
2023/08/08 11:01:09;;;;;;;;;3.75;2.00;;;;;22.16;55.51;101323.81;4956608;28;45659;-72
2023/08/08 11:03:39;;;;;;;;;1.00;1.00;;;;;22.24;56.02;101330.59;4956017;28;45414;-72
2023/08/08 11:06:09;;;;;;;;;2.50;1.25;;;;;22.16;55.20;101318.38;4954844;28;45430;-72
2023/08/08 11:08:36;;;;;;;;;1.00;1.00;;;;;22.15;55.01;101297.63;5026169;28;45503;-72
2023/08/08 11:11:03;;;;;;;;;1.00;1.00;;;;;22.23;55.71;101296.22;4967704;28;45467;-72
2023/08/08 11:13:29;;;;;;;;;2.00;2.00;;;;;22.24;54.71;101297.97;4955891;28;46375;-72
2023/08/08 11:15:54;;;;;;;;;1.50;1.50;;;;;22.25;55.52;101296.97;4956261;28;45556;-72
2023/08/08 11:18:20;;;;;;;;;1.00;1.00;;;;;22.22;55.03;101295.34;4956163;28;45317;-72